sensor_id;sensor_type;location;lat;lon;timestamp;temperature;humidity
77247;SHT35;66279;42.820;23.374;2023-07-13T00:01:29;19.41;76.48
77247;SHT35;66279;42.820;23.374;2023-07-13T00:03:57;19.41;76.29
77247;SHT35;66279;42.820;23.374;2023-07-13T00:06:23;19.36;76.29
77247;SHT35;66279;42.820;23.374;2023-07-13T00:08:48;19.36;76.21
77247;SHT35;66279;42.820;23.374;2023-07-13T00:11:15;19.34;76.44
77247;SHT35;66279;42.820;23.374;2023-07-13T00:13:42;19.32;76.65
77247;SHT35;66279;42.820;23.374;2023-07-13T00:16:09;19.28;77.01
77247;SHT35;66279;42.820;23.374;2023-07-13T00:18:34;19.22;77.11
77247;SHT35;66279;42.820;23.374;2023-07-13T00:21:00;19.15;76.57
77247;SHT35;66279;42.820;23.374;2023-07-13T00:23:34;19.08;77.51
77247;SHT35;66279;42.820;23.374;2023-07-13T00:26:03;18.99;77.29
77247;SHT35;66279;42.820;23.374;2023-07-13T00:28:30;18.99;77.85
77247;SHT35;66279;42.820;23.374;2023-07-13T00:30:55;19.00;77.46
77247;SHT35;66279;42.820;23.374;2023-07-13T00:33:21;19.00;76.99
77247;SHT35;66279;42.820;23.374;2023-07-13T00:35:49;19.04;77.43
77247;SHT35;66279;42.820;23.374;2023-07-13T00:38:15;19.04;77.09
77247;SHT35;66279;42.820;23.374;2023-07-13T00:40:40;19.03;77.69
77247;SHT35;66279;42.820;23.374;2023-07-13T00:43:35;18.99;77.47
77247;SHT35;66279;42.820;23.374;2023-07-13T00:48:42;18.79;78.43
77247;SHT35;66279;42.820;23.374;2023-07-13T00:51:08;18.67;78.19
77247;SHT35;66279;42.820;23.374;2023-07-13T00:53:35;18.66;78.95
77247;SHT35;66279;42.820;23.374;2023-07-13T00:56:01;18.69;78.17
77247;SHT35;66279;42.820;23.374;2023-07-13T00:58:27;18.73;77.83
77247;SHT35;66279;42.820;23.374;2023-07-13T01:00:53;18.73;78.16
77247;SHT35;66279;42.820;23.374;2023-07-13T01:03:19;18.73;78.08
77247;SHT35;66279;42.820;23.374;2023-07-13T01:05:47;18.70;78.31
77247;SHT35;66279;42.820;23.374;2023-07-13T01:08:13;18.70;78.39
77247;SHT35;66279;42.820;23.374;2023-07-13T01:10:39;18.66;77.75
77247;SHT35;66279;42.820;23.374;2023-07-13T01:13:10;18.67;77.40
77247;SHT35;66279;42.820;23.374;2023-07-13T01:15:44;18.67;77.51
77247;SHT35;66279;42.820;23.374;2023-07-13T01:18:12;18.67;77.50
77247;SHT35;66279;42.820;23.374;2023-07-13T01:20:38;18.63;77.69
77247;SHT35;66279;42.820;23.374;2023-07-13T01:23:06;18.62;77.79
77247;SHT35;66279;42.820;23.374;2023-07-13T01:25:33;18.57;79.38
77247;SHT35;66279;42.820;23.374;2023-07-13T01:27:59;18.52;79.31
77247;SHT35;66279;42.820;23.374;2023-07-13T01:30:24;18.55;78.44
77247;SHT35;66279;42.820;23.374;2023-07-13T01:32:50;18.48;78.43
77247;SHT35;66279;42.820;23.374;2023-07-13T01:35:15;18.45;79.00
77247;SHT35;66279;42.820;23.374;2023-07-13T01:37:42;18.45;79.06
77247;SHT35;66279;42.820;23.374;2023-07-13T01:40:11;18.36;79.60
77247;SHT35;66279;42.820;23.374;2023-07-13T01:42:37;18.33;78.84
77247;SHT35;66279;42.820;23.374;2023-07-13T01:45:03;18.32;78.80
77247;SHT35;66279;42.820;23.374;2023-07-13T01:47:29;18.33;79.59
77247;SHT35;66279;42.820;23.374;2023-07-13T01:49:56;18.33;79.12
77247;SHT35;66279;42.820;23.374;2023-07-13T01:52:22;18.38;78.69
77247;SHT35;66279;42.820;23.374;2023-07-13T01:54:49;18.38;79.39
77247;SHT35;66279;42.820;23.374;2023-07-13T01:57:14;18.35;78.73
77247;SHT35;66279;42.820;23.374;2023-07-13T01:59:40;18.36;79.31
77247;SHT35;66279;42.820;23.374;2023-07-13T02:02:05;18.28;79.68
77247;SHT35;66279;42.820;23.374;2023-07-13T02:04:31;18.24;78.79
77247;SHT35;66279;42.820;23.374;2023-07-13T02:06:57;18.19;79.39
77247;SHT35;66279;42.820;23.374;2023-07-13T02:09:22;18.13;79.50
77247;SHT35;66279;42.820;23.374;2023-07-13T02:11:48;18.05;79.71
77247;SHT35;66279;42.820;23.374;2023-07-13T02:14:14;17.91;80.40
77247;SHT35;66279;42.820;23.374;2023-07-13T02:16:41;17.88;80.00
77247;SHT35;66279;42.820;23.374;2023-07-13T02:19:07;17.90;80.61
77247;SHT35;66279;42.820;23.374;2023-07-13T02:21:32;17.81;80.66
77247;SHT35;66279;42.820;23.374;2023-07-13T02:23:58;17.80;80.53
77247;SHT35;66279;42.820;23.374;2023-07-13T02:26:25;17.75;80.83
77247;SHT35;66279;42.820;23.374;2023-07-13T02:28:51;17.71;80.95
77247;SHT35;66279;42.820;23.374;2023-07-13T02:31:17;17.70;80.88
77247;SHT35;66279;42.820;23.374;2023-07-13T02:33:43;17.64;81.65
77247;SHT35;66279;42.820;23.374;2023-07-13T02:36:09;17.59;81.60
77247;SHT35;66279;42.820;23.374;2023-07-13T02:38:35;17.55;81.33
77247;SHT35;66279;42.820;23.374;2023-07-13T02:41:06;17.54;80.85
77247;SHT35;66279;42.820;23.374;2023-07-13T02:43:32;17.59;80.68
77247;SHT35;66279;42.820;23.374;2023-07-13T02:45:59;17.62;81.34
77247;SHT35;66279;42.820;23.374;2023-07-13T02:48:29;17.69;80.64
77247;SHT35;66279;42.820;23.374;2023-07-13T02:50:55;17.71;80.48
77247;SHT35;66279;42.820;23.374;2023-07-13T02:53:20;17.71;80.12
77247;SHT35;66279;42.820;23.374;2023-07-13T02:55:46;17.70;80.65
77247;SHT35;66279;42.820;23.374;2023-07-13T02:58:13;17.66;81.22
77247;SHT35;66279;42.820;23.374;2023-07-13T03:00:43;17.62;80.53
77247;SHT35;66279;42.820;23.374;2023-07-13T03:03:09;17.59;80.50
77247;SHT35;66279;42.820;23.374;2023-07-13T03:05:34;17.54;80.23
77247;SHT35;66279;42.820;23.374;2023-07-13T03:08:00;17.54;80.25
77247;SHT35;66279;42.820;23.374;2023-07-13T03:10:25;17.53;80.51
77247;SHT35;66279;42.820;23.374;2023-07-13T03:12:51;17.47;81.00
77247;SHT35;66279;42.820;23.374;2023-07-13T03:15:16;17.43;81.66
77247;SHT35;66279;42.820;23.374;2023-07-13T03:17:42;17.43;81.45
77247;SHT35;66279;42.820;23.374;2023-07-13T03:20:08;17.39;81.63
77247;SHT35;66279;42.820;23.374;2023-07-13T03:22:34;17.40;82.01
77247;SHT35;66279;42.820;23.374;2023-07-13T03:25:00;17.40;81.31
77247;SHT35;66279;42.820;23.374;2023-07-13T03:27:25;17.39;80.96
77247;SHT35;66279;42.820;23.374;2023-07-13T03:29:51;17.42;81.09
77247;SHT35;66279;42.820;23.374;2023-07-13T03:32:16;17.47;80.71
77247;SHT35;66279;42.820;23.374;2023-07-13T03:34:42;17.43;80.63
77247;SHT35;66279;42.820;23.374;2023-07-13T03:37:07;17.46;80.84
77247;SHT35;66279;42.820;23.374;2023-07-13T03:39:33;17.42;81.42
77247;SHT35;66279;42.820;23.374;2023-07-13T03:41:58;17.47;80.86
77247;SHT35;66279;42.820;23.374;2023-07-13T03:44:24;17.47;80.87
77247;SHT35;66279;42.820;23.374;2023-07-13T03:46:49;17.49;81.11
77247;SHT35;66279;42.820;23.374;2023-07-13T03:49:15;17.49;81.39
77247;SHT35;66279;42.820;23.374;2023-07-13T03:51:41;17.46;81.61
77247;SHT35;66279;42.820;23.374;2023-07-13T03:54:06;17.50;80.93
77247;SHT35;66279;42.820;23.374;2023-07-13T03:56:32;17.53;81.02
77247;SHT35;66279;42.820;23.374;2023-07-13T03:58:58;17.55;81.59
77247;SHT35;66279;42.820;23.374;2023-07-13T04:01:24;17.59;81.68
77247;SHT35;66279;42.820;23.374;2023-07-13T04:03:53;17.60;82.00
77247;SHT35;66279;42.820;23.374;2023-07-13T04:06:26;17.69;81.76
77247;SHT35;66279;42.820;23.374;2023-07-13T04:08:54;17.75;81.86
77247;SHT35;66279;42.820;23.374;2023-07-13T04:11:20;17.85;81.58
77247;SHT35;66279;42.820;23.374;2023-07-13T04:13:47;17.90;82.62
77247;SHT35;66279;42.820;23.374;2023-07-13T04:16:17;18.01;81.48
77247;SHT35;66279;42.820;23.374;2023-07-13T04:18:43;18.08;82.03
77247;SHT35;66279;42.820;23.374;2023-07-13T04:21:09;18.16;81.78
77247;SHT35;66279;42.820;23.374;2023-07-13T04:23:36;18.26;80.50
77247;SHT35;66279;42.820;23.374;2023-07-13T04:26:02;18.36;80.40
77247;SHT35;66279;42.820;23.374;2023-07-13T04:28:27;18.43;81.55
77247;SHT35;66279;42.820;23.374;2023-07-13T04:30:54;18.52;80.83
77247;SHT35;66279;42.820;23.374;2023-07-13T04:33:19;18.62;81.20
77247;SHT35;66279;42.820;23.374;2023-07-13T04:35:51;18.64;81.01
77247;SHT35;66279;42.820;23.374;2023-07-13T04:38:27;18.70;81.35
77247;SHT35;66279;42.820;23.374;2023-07-13T04:40:56;18.81;80.71
77247;SHT35;66279;42.820;23.374;2023-07-13T04:43:23;18.86;80.37
77247;SHT35;66279;42.820;23.374;2023-07-13T04:45:49;18.96;80.11
77247;SHT35;66279;42.820;23.374;2023-07-13T04:48:15;19.03;80.29
77247;SHT35;66279;42.820;23.374;2023-07-13T04:50:41;19.11;80.26
77247;SHT35;66279;42.820;23.374;2023-07-13T04:53:08;19.17;80.12
77247;SHT35;66279;42.820;23.374;2023-07-13T04:55:34;19.25;78.86
77247;SHT35;66279;42.820;23.374;2023-07-13T04:57:59;19.30;79.12
77247;SHT35;66279;42.820;23.374;2023-07-13T05:00:26;19.42;79.18
77247;SHT35;66279;42.820;23.374;2023-07-13T05:02:51;19.54;79.32
77247;SHT35;66279;42.820;23.374;2023-07-13T05:05:17;19.62;79.68
77247;SHT35;66279;42.820;23.374;2023-07-13T05:07:42;19.72;79.00
77247;SHT35;66279;42.820;23.374;2023-07-13T05:10:09;19.79;78.28
77247;SHT35;66279;42.820;23.374;2023-07-13T05:12:34;19.86;78.37
77247;SHT35;66279;42.820;23.374;2023-07-13T05:15:00;19.94;76.63
77247;SHT35;66279;42.820;23.374;2023-07-13T05:17:26;20.03;77.24
77247;SHT35;66279;42.820;23.374;2023-07-13T05:19:51;20.16;77.34
77247;SHT35;66279;42.820;23.374;2023-07-13T05:22:17;20.27;76.36
77247;SHT35;66279;42.820;23.374;2023-07-13T05:24:42;20.45;75.95
77247;SHT35;66279;42.820;23.374;2023-07-13T05:27:08;20.57;76.03
77247;SHT35;66279;42.820;23.374;2023-07-13T05:29:33;20.69;75.02
77247;SHT35;66279;42.820;23.374;2023-07-13T05:31:59;20.85;74.77
77247;SHT35;66279;42.820;23.374;2023-07-13T05:34:24;21.06;75.09
77247;SHT35;66279;42.820;23.374;2023-07-13T05:36:50;21.30;72.92
77247;SHT35;66279;42.820;23.374;2023-07-13T05:39:16;21.50;72.19
77247;SHT35;66279;42.820;23.374;2023-07-13T05:41:42;21.71;73.05
77247;SHT35;66279;42.820;23.374;2023-07-13T05:44:07;21.93;72.59
77247;SHT35;66279;42.820;23.374;2023-07-13T05:46:33;22.12;72.32
77247;SHT35;66279;42.820;23.374;2023-07-13T05:48:59;22.38;70.84
77247;SHT35;66279;42.820;23.374;2023-07-13T05:51:24;22.57;70.41
77247;SHT35;66279;42.820;23.374;2023-07-13T05:53:50;22.79;69.51
77247;SHT35;66279;42.820;23.374;2023-07-13T05:56:15;23.04;69.18
77247;SHT35;66279;42.820;23.374;2023-07-13T05:58:41;23.30;67.60
77247;SHT35;66279;42.820;23.374;2023-07-13T06:01:10;23.54;67.24
77247;SHT35;66279;42.820;23.374;2023-07-13T06:03:36;23.85;68.15
77247;SHT35;66279;42.820;23.374;2023-07-13T06:06:04;24.08;66.03
77247;SHT35;66279;42.820;23.374;2023-07-13T06:08:30;24.27;66.25
77247;SHT35;66279;42.820;23.374;2023-07-13T06:11:02;24.56;64.32
77247;SHT35;66279;42.820;23.374;2023-07-13T06:13:28;24.63;62.63
77247;SHT35;66279;42.820;23.374;2023-07-13T06:15:54;24.84;62.88
77247;SHT35;66279;42.820;23.374;2023-07-13T06:18:19;25.14;64.36
77247;SHT35;66279;42.820;23.374;2023-07-13T06:20:45;25.45;64.08
77247;SHT35;66279;42.820;23.374;2023-07-13T06:23:10;25.70;60.61
77247;SHT35;66279;42.820;23.374;2023-07-13T06:25:36;25.76;60.71
77247;SHT35;66279;42.820;23.374;2023-07-13T06:28:01;26.00;60.75
77247;SHT35;66279;42.820;23.374;2023-07-13T06:30:27;26.09;58.68
77247;SHT35;66279;42.820;23.374;2023-07-13T06:32:54;26.38;60.38
77247;SHT35;66279;42.820;23.374;2023-07-13T06:35:19;26.55;58.15
77247;SHT35;66279;42.820;23.374;2023-07-13T06:37:45;26.99;59.42
77247;SHT35;66279;42.820;23.374;2023-07-13T06:40:12;27.20;56.28
77247;SHT35;66279;42.820;23.374;2023-07-13T06:42:38;27.55;57.43
77247;SHT35;66279;42.820;23.374;2023-07-13T06:45:04;27.86;58.98
77247;SHT35;66279;42.820;23.374;2023-07-13T06:47:30;27.85;56.53
77247;SHT35;66279;42.820;23.374;2023-07-13T06:49:55;28.10;57.44
77247;SHT35;66279;42.820;23.374;2023-07-13T06:52:21;28.31;54.87
77247;SHT35;66279;42.820;23.374;2023-07-13T06:54:46;28.65;56.85
77247;SHT35;66279;42.820;23.374;2023-07-13T06:57:12;28.57;52.65
77247;SHT35;66279;42.820;23.374;2023-07-13T06:59:37;29.07;54.81
77247;SHT35;66279;42.820;23.374;2023-07-13T07:02:03;29.23;54.26
77247;SHT35;66279;42.820;23.374;2023-07-13T07:04:28;29.39;51.48
77247;SHT35;66279;42.820;23.374;2023-07-13T07:06:54;29.62;51.23
77247;SHT35;66279;42.820;23.374;2023-07-13T07:09:20;29.66;50.25
77247;SHT35;66279;42.820;23.374;2023-07-13T07:11:45;29.67;49.38
77247;SHT35;66279;42.820;23.374;2023-07-13T07:14:11;30.04;51.52
77247;SHT35;66279;42.820;23.374;2023-07-13T07:16:36;30.14;51.41
77247;SHT35;66279;42.820;23.374;2023-07-13T07:19:02;30.35;47.73
77247;SHT35;66279;42.820;23.374;2023-07-13T07:21:27;30.74;48.71
77247;SHT35;66279;42.820;23.374;2023-07-13T07:23:53;30.85;47.79
77247;SHT35;66279;42.820;23.374;2023-07-13T07:26:19;31.03;48.95
77247;SHT35;66279;42.820;23.374;2023-07-13T07:28:44;31.15;47.87
77247;SHT35;66279;42.820;23.374;2023-07-13T07:31:10;31.16;48.95
77247;SHT35;66279;42.820;23.374;2023-07-13T07:33:36;31.57;46.37
77247;SHT35;66279;42.820;23.374;2023-07-13T07:36:02;31.73;44.96
77247;SHT35;66279;42.820;23.374;2023-07-13T07:38:28;32.12;47.68
77247;SHT35;66279;42.820;23.374;2023-07-13T07:40:54;32.43;44.38
77247;SHT35;66279;42.820;23.374;2023-07-13T07:43:19;32.11;43.27
77247;SHT35;66279;42.820;23.374;2023-07-13T07:45:45;32.14;44.19
77247;SHT35;66279;42.820;23.374;2023-07-13T07:48:11;32.40;44.31
77247;SHT35;66279;42.820;23.374;2023-07-13T07:50:37;32.79;45.98
77247;SHT35;66279;42.820;23.374;2023-07-13T07:53:05;32.88;42.30
77247;SHT35;66279;42.820;23.374;2023-07-13T07:55:33;32.69;46.48
77247;SHT35;66279;42.820;23.374;2023-07-13T07:57:59;32.90;44.98
77247;SHT35;66279;42.820;23.374;2023-07-13T08:00:25;33.35;44.87
77247;SHT35;66279;42.820;23.374;2023-07-13T08:02:50;33.62;40.98
77247;SHT35;66279;42.820;23.374;2023-07-13T08:05:16;33.89;41.49
77247;SHT35;66279;42.820;23.374;2023-07-13T08:07:42;33.99;43.13
77247;SHT35;66279;42.820;23.374;2023-07-13T08:10:08;34.40;41.28
77247;SHT35;66279;42.820;23.374;2023-07-13T08:12:35;34.43;41.65
77247;SHT35;66279;42.820;23.374;2023-07-13T08:15:00;34.63;42.21
77247;SHT35;66279;42.820;23.374;2023-07-13T08:17:26;34.94;39.09
77247;SHT35;66279;42.820;23.374;2023-07-13T08:19:52;35.01;38.33
77247;SHT35;66279;42.820;23.374;2023-07-13T08:22:18;34.71;38.57
77247;SHT35;66279;42.820;23.374;2023-07-13T08:24:43;34.70;38.84
77247;SHT35;66279;42.820;23.374;2023-07-13T08:27:10;34.74;38.45
77247;SHT35;66279;42.820;23.374;2023-07-13T08:29:37;34.86;38.89
77247;SHT35;66279;42.820;23.374;2023-07-13T08:32:02;35.09;39.57
77247;SHT35;66279;42.820;23.374;2023-07-13T08:34:31;35.22;38.11
77247;SHT35;66279;42.820;23.374;2023-07-13T08:36:56;35.26;39.08
77247;SHT35;66279;42.820;23.374;2023-07-13T08:39:22;35.32;38.79
77247;SHT35;66279;42.820;23.374;2023-07-13T08:41:57;35.67;38.59
77247;SHT35;66279;42.820;23.374;2023-07-13T08:44:44;35.42;36.92
77247;SHT35;66279;42.820;23.374;2023-07-13T08:47:20;36.01;36.48
77247;SHT35;66279;42.820;23.374;2023-07-13T08:49:46;36.30;36.60
77247;SHT35;66279;42.820;23.374;2023-07-13T08:52:33;36.56;35.96
77247;SHT35;66279;42.820;23.374;2023-07-13T08:55:11;36.41;35.56
77247;SHT35;66279;42.820;23.374;2023-07-13T08:57:43;37.11;35.72
77247;SHT35;66279;42.820;23.374;2023-07-13T09:00:13;37.51;37.69
77247;SHT35;66279;42.820;23.374;2023-07-13T09:05:14;37.46;34.74
77247;SHT35;66279;42.820;23.374;2023-07-13T09:10:45;37.53;33.11
77247;SHT35;66279;42.820;23.374;2023-07-13T09:15:56;37.71;34.52
77247;SHT35;66279;42.820;23.374;2023-07-13T09:18:30;38.05;33.12
77247;SHT35;66279;42.820;23.374;2023-07-13T09:21:12;38.25;33.77
77247;SHT35;66279;42.820;23.374;2023-07-13T09:23:38;38.28;33.87
77247;SHT35;66279;42.820;23.374;2023-07-13T09:26:18;38.33;31.17
77247;SHT35;66279;42.820;23.374;2023-07-13T09:28:46;37.60;31.39
77247;SHT35;66279;42.820;23.374;2023-07-13T09:31:16;37.78;33.22
77247;SHT35;66279;42.820;23.374;2023-07-13T09:33:42;38.24;32.78
77247;SHT35;66279;42.820;23.374;2023-07-13T09:36:20;38.33;31.70
77247;SHT35;66279;42.820;23.374;2023-07-13T09:46:55;39.03;29.50
77247;SHT35;66279;42.820;23.374;2023-07-13T09:49:28;39.20;29.75
77247;SHT35;66279;42.820;23.374;2023-07-13T09:59:31;39.94;29.62
77247;SHT35;66279;42.820;23.374;2023-07-13T10:01:57;39.74;27.92
77247;SHT35;66279;42.820;23.374;2023-07-13T10:04:30;39.24;28.07
77247;SHT35;66279;42.820;23.374;2023-07-13T10:07:12;39.54;29.89
77247;SHT35;66279;42.820;23.374;2023-07-13T10:09:40;39.50;27.44
77247;SHT35;66279;42.820;23.374;2023-07-13T10:12:15;39.41;28.68
77247;SHT35;66279;42.820;23.374;2023-07-13T10:14:42;39.58;27.59
77247;SHT35;66279;42.820;23.374;2023-07-13T10:17:13;39.58;29.22
77247;SHT35;66279;42.820;23.374;2023-07-13T10:19:41;40.08;28.24
77247;SHT35;66279;42.820;23.374;2023-07-13T10:22:27;40.61;27.49
77247;SHT35;66279;42.820;23.374;2023-07-13T10:24:55;40.92;27.30
77247;SHT35;66279;42.820;23.374;2023-07-13T10:27:34;40.44;27.84
77247;SHT35;66279;42.820;23.374;2023-07-13T10:32:35;40.64;26.80
77247;SHT35;66279;42.820;23.374;2023-07-13T10:35:01;40.52;27.20
77247;SHT35;66279;42.820;23.374;2023-07-13T10:37:38;40.56;26.54
77247;SHT35;66279;42.820;23.374;2023-07-13T10:40:05;40.67;26.36
77247;SHT35;66279;42.820;23.374;2023-07-13T10:42:37;40.70;26.45
77247;SHT35;66279;42.820;23.374;2023-07-13T10:45:20;40.98;27.75
77247;SHT35;66279;42.820;23.374;2023-07-13T10:47:47;41.42;27.09
77247;SHT35;66279;42.820;23.374;2023-07-13T10:50:21;41.45;25.43
77247;SHT35;66279;42.820;23.374;2023-07-13T10:52:49;41.21;25.39
77247;SHT35;66279;42.820;23.374;2023-07-13T10:55:37;41.02;25.86
77247;SHT35;66279;42.820;23.374;2023-07-13T10:58:28;41.07;25.33
77247;SHT35;66279;42.820;23.374;2023-07-13T11:03:33;41.31;25.60
77247;SHT35;66279;42.820;23.374;2023-07-13T11:06:16;41.41;25.89
77247;SHT35;66279;42.820;23.374;2023-07-13T11:18:47;42.10;24.84
77247;SHT35;66279;42.820;23.374;2023-07-13T11:21:16;42.27;24.73
77247;SHT35;66279;42.820;23.374;2023-07-13T11:23:44;42.17;23.16
77247;SHT35;66279;42.820;23.374;2023-07-13T11:28:54;42.96;23.89
77247;SHT35;66279;42.820;23.374;2023-07-13T11:31:19;42.90;22.27
77247;SHT35;66279;42.820;23.374;2023-07-13T11:33:57;42.89;23.66
77247;SHT35;66279;42.820;23.374;2023-07-13T11:36:31;42.62;22.61
77247;SHT35;66279;42.820;23.374;2023-07-13T11:38:58;42.51;23.72
77247;SHT35;66279;42.820;23.374;2023-07-13T11:41:28;42.44;25.55
77247;SHT35;66279;42.820;23.374;2023-07-13T11:44:07;43.10;25.71
77247;SHT35;66279;42.820;23.374;2023-07-13T11:46:32;43.19;23.10
77247;SHT35;66279;42.820;23.374;2023-07-13T11:48:58;43.03;24.74
77247;SHT35;66279;42.820;23.374;2023-07-13T11:51:28;43.17;23.69
77247;SHT35;66279;42.820;23.374;2023-07-13T11:53:57;43.40;23.47
77247;SHT35;66279;42.820;23.374;2023-07-13T11:56:25;43.01;23.40
77247;SHT35;66279;42.820;23.374;2023-07-13T11:58:55;42.67;22.53
77247;SHT35;66279;42.820;23.374;2023-07-13T12:01:25;42.65;22.90
77247;SHT35;66279;42.820;23.374;2023-07-13T12:03:52;43.22;22.78
77247;SHT35;66279;42.820;23.374;2023-07-13T12:08:50;43.09;23.27
77247;SHT35;66279;42.820;23.374;2023-07-13T12:11:18;43.36;23.77
77247;SHT35;66279;42.820;23.374;2023-07-13T12:13:45;43.29;23.50
77247;SHT35;66279;42.820;23.374;2023-07-13T12:16:21;43.35;23.21
77247;SHT35;66279;42.820;23.374;2023-07-13T12:18:48;43.19;22.43
77247;SHT35;66279;42.820;23.374;2023-07-13T12:21:17;43.60;23.05
77247;SHT35;66279;42.820;23.374;2023-07-13T12:23:44;43.47;24.38
77247;SHT35;66279;42.820;23.374;2023-07-13T12:26:12;43.20;25.30
77247;SHT35;66279;42.820;23.374;2023-07-13T12:28:52;43.05;23.03
77247;SHT35;66279;42.820;23.374;2023-07-13T12:34:17;43.29;23.09
77247;SHT35;66279;42.820;23.374;2023-07-13T12:39:23;42.92;23.27
77247;SHT35;66279;42.820;23.374;2023-07-13T12:41:51;43.33;24.00
77247;SHT35;66279;42.820;23.374;2023-07-13T12:44:24;43.42;23.38
77247;SHT35;66279;42.820;23.374;2023-07-13T12:47:04;43.67;23.24
77247;SHT35;66279;42.820;23.374;2023-07-13T12:49:33;43.49;22.77
77247;SHT35;66279;42.820;23.374;2023-07-13T12:52:13;43.58;22.96
77247;SHT35;66279;42.820;23.374;2023-07-13T12:54:39;42.54;23.12
77247;SHT35;66279;42.820;23.374;2023-07-13T12:57:05;42.67;24.12
77247;SHT35;66279;42.820;23.374;2023-07-13T12:59:34;42.59;24.72
77247;SHT35;66279;42.820;23.374;2023-07-13T13:02:04;42.78;23.59
77247;SHT35;66279;42.820;23.374;2023-07-13T13:04:41;43.26;24.41
77247;SHT35;66279;42.820;23.374;2023-07-13T13:07:09;43.20;23.01
77247;SHT35;66279;42.820;23.374;2023-07-13T13:09:35;43.35;23.25
77247;SHT35;66279;42.820;23.374;2023-07-13T13:12:00;43.03;24.48
77247;SHT35;66279;42.820;23.374;2023-07-13T13:14:26;42.75;25.41
77247;SHT35;66279;42.820;23.374;2023-07-13T13:16:52;42.00;24.15
77247;SHT35;66279;42.820;23.374;2023-07-13T13:19:29;41.79;25.00
77247;SHT35;66279;42.820;23.374;2023-07-13T13:21:55;41.60;24.97
77247;SHT35;66279;42.820;23.374;2023-07-13T13:24:24;41.78;24.44
77247;SHT35;66279;42.820;23.374;2023-07-13T13:26:51;41.85;25.65
77247;SHT35;66279;42.820;23.374;2023-07-13T13:29:23;42.54;25.84
77247;SHT35;66279;42.820;23.374;2023-07-13T13:31:53;42.51;24.56
77247;SHT35;66279;42.820;23.374;2023-07-13T13:34:20;42.72;23.66
77247;SHT35;66279;42.820;23.374;2023-07-13T13:36:48;42.68;23.92
77247;SHT35;66279;42.820;23.374;2023-07-13T13:41:47;41.87;24.03
77247;SHT35;66279;42.820;23.374;2023-07-13T13:44:15;41.92;25.01
77247;SHT35;66279;42.820;23.374;2023-07-13T13:46:42;41.96;24.23
77247;SHT35;66279;42.820;23.374;2023-07-13T13:49:27;42.07;23.33
77247;SHT35;66279;42.820;23.374;2023-07-13T13:51:54;42.30;24.80
77247;SHT35;66279;42.820;23.374;2023-07-13T13:54:20;42.01;23.10
77247;SHT35;66279;42.820;23.374;2023-07-13T13:56:48;41.90;23.75
77247;SHT35;66279;42.820;23.374;2023-07-13T13:59:17;41.49;23.77
77247;SHT35;66279;42.820;23.374;2023-07-13T14:01:45;41.42;24.47
77247;SHT35;66279;42.820;23.374;2023-07-13T14:04:21;41.75;24.21
77247;SHT35;66279;42.820;23.374;2023-07-13T14:06:47;42.03;24.98
77247;SHT35;66279;42.820;23.374;2023-07-13T14:09:15;42.10;23.62
77247;SHT35;66279;42.820;23.374;2023-07-13T14:11:42;42.21;25.26
77247;SHT35;66279;42.820;23.374;2023-07-13T14:14:13;42.30;25.20
77247;SHT35;66279;42.820;23.374;2023-07-13T14:16:43;41.99;24.60
77247;SHT35;66279;42.820;23.374;2023-07-13T14:19:11;42.23;25.38
77247;SHT35;66279;42.820;23.374;2023-07-13T14:21:37;42.37;25.47
77247;SHT35;66279;42.820;23.374;2023-07-13T14:24:03;42.23;24.56
77247;SHT35;66279;42.820;23.374;2023-07-13T14:26:34;42.01;23.63
77247;SHT35;66279;42.820;23.374;2023-07-13T14:29:01;41.90;24.67
77247;SHT35;66279;42.820;23.374;2023-07-13T14:31:27;41.80;23.97
77247;SHT35;66279;42.820;23.374;2023-07-13T14:33:56;41.70;24.39
77247;SHT35;66279;42.820;23.374;2023-07-13T14:36:32;41.80;23.68
77247;SHT35;66279;42.820;23.374;2023-07-13T14:39:01;41.69;24.12
77247;SHT35;66279;42.820;23.374;2023-07-13T14:41:31;41.68;24.59
77247;SHT35;66279;42.820;23.374;2023-07-13T14:43:57;41.52;24.70
77247;SHT35;66279;42.820;23.374;2023-07-13T14:46:31;41.05;24.78
77247;SHT35;66279;42.820;23.374;2023-07-13T14:49:03;41.14;25.16
77247;SHT35;66279;42.820;23.374;2023-07-13T14:51:30;41.37;25.01
77247;SHT35;66279;42.820;23.374;2023-07-13T14:53:56;41.07;25.07
77247;SHT35;66279;42.820;23.374;2023-07-13T14:56:22;41.04;25.18
77247;SHT35;66279;42.820;23.374;2023-07-13T14:58:48;40.88;24.93
77247;SHT35;66279;42.820;23.374;2023-07-13T15:01:14;41.07;26.49
77247;SHT35;66279;42.820;23.374;2023-07-13T15:03:46;41.22;26.17
77247;SHT35;66279;42.820;23.374;2023-07-13T15:06:13;41.48;25.38
77247;SHT35;66279;42.820;23.374;2023-07-13T15:08:39;41.34;24.86
77247;SHT35;66279;42.820;23.374;2023-07-13T15:11:07;41.60;24.81
77247;SHT35;66279;42.820;23.374;2023-07-13T15:13:32;41.43;24.90
77247;SHT35;66279;42.820;23.374;2023-07-13T15:15:59;41.27;25.09
77247;SHT35;66279;42.820;23.374;2023-07-13T15:18:25;41.24;25.64
77247;SHT35;66279;42.820;23.374;2023-07-13T15:20:51;40.97;25.58
77247;SHT35;66279;42.820;23.374;2023-07-13T15:23:22;40.88;25.90
77247;SHT35;66279;42.820;23.374;2023-07-13T15:25:48;40.61;25.53
77247;SHT35;66279;42.820;23.374;2023-07-13T15:28:13;40.73;26.28
77247;SHT35;66279;42.820;23.374;2023-07-13T15:30:43;40.42;26.02
77247;SHT35;66279;42.820;23.374;2023-07-13T15:35:37;40.13;25.75
77247;SHT35;66279;42.820;23.374;2023-07-13T15:38:13;39.86;26.11
77247;SHT35;66279;42.820;23.374;2023-07-13T15:40:40;39.92;26.73
77247;SHT35;66279;42.820;23.374;2023-07-13T15:43:13;40.06;26.71
77247;SHT35;66279;42.820;23.374;2023-07-13T15:45:39;39.78;26.35
77247;SHT35;66279;42.820;23.374;2023-07-13T15:48:17;39.38;26.79
77247;SHT35;66279;42.820;23.374;2023-07-13T15:50:46;39.34;27.54
77247;SHT35;66279;42.820;23.374;2023-07-13T15:53:13;39.34;27.90
77247;SHT35;66279;42.820;23.374;2023-07-13T15:55:40;39.13;27.76
77247;SHT35;66279;42.820;23.374;2023-07-13T15:58:11;38.77;27.98
77247;SHT35;66279;42.820;23.374;2023-07-13T16:00:37;38.73;28.26
77247;SHT35;66279;42.820;23.374;2023-07-13T16:03:03;38.51;28.11
77247;SHT35;66279;42.820;23.374;2023-07-13T16:05:28;38.39;28.25
77247;SHT35;66279;42.820;23.374;2023-07-13T16:07:54;38.38;28.56
77247;SHT35;66279;42.820;23.374;2023-07-13T16:10:32;38.27;28.40
77247;SHT35;66279;42.820;23.374;2023-07-13T16:12:59;38.11;29.10
77247;SHT35;66279;42.820;23.374;2023-07-13T16:15:25;37.98;29.63
77247;SHT35;66279;42.820;23.374;2023-07-13T16:17:51;38.00;29.59